Time;durP1;ratioP1;P1;durP2;ratioP2;P2;SDS_P1;SDS_P2;PMS_P1;PMS_P2;Temp;Humidity;BMP_temperature;BMP_pressure;BME280_temperature;BME280_humidity;BME280_pressure;Samples;Min_cycle;Max_cycle;Signal;HPM_P1;HPM_P2
2021/10/07 00:01:24;;;;;;;5.23;1.70;;;11.80;99.90;;;;;;5070959;28;20383;-53
2021/10/07 00:03:53;;;;;;;5.75;1.70;;;11.70;99.90;;;;;;5071835;28;20383;-53
2021/10/07 00:06:20;;;;;;;4.80;1.80;;;11.70;99.90;;;;;;5072189;28;20877;-53
2021/10/07 00:08:46;;;;;;;4.40;1.90;;;11.80;99.90;;;;;;5071196;28;20426;-53
2021/10/07 00:11:12;;;;;;;4.87;1.77;;;11.80;99.90;;;;;;5072294;28;20384;-53
2021/10/07 00:13:39;;;;;;;6.00;1.90;;;11.80;99.90;;;;;;5072191;28;20430;-53
2021/10/07 00:16:06;;;;;;;5.50;2.00;;;11.80;99.90;;;;;;5071495;28;20384;-53
2021/10/07 00:18:36;;;;;;;5.37;2.20;;;11.80;99.90;;;;;;5071907;28;20396;-53
2021/10/07 00:21:05;;;;;;;5.95;2.17;;;11.80;99.90;;;;;;5071258;28;20458;-53
2021/10/07 00:23:35;;;;;;;5.38;1.80;;;11.80;99.90;;;;;;5072242;28;20388;-53
2021/10/07 00:26:01;;;;;;;6.10;1.92;;;11.80;99.90;;;;;;5070682;28;20492;-53
2021/10/07 00:28:30;;;;;;;4.50;1.90;;;11.80;99.90;;;;;;5071671;28;20730;-53
2021/10/07 00:30:58;;;;;;;4.70;1.90;;;11.80;99.90;;;;;;5071023;28;20422;-53
2021/10/07 00:33:30;;;;;;;5.53;2.00;;;11.80;99.90;;;;;;5071520;28;20372;-53
2021/10/07 00:41:11;;;;;;;4.97;2.10;;;11.70;99.90;;;;;;5071291;28;20382;-54
2021/10/07 00:43:37;;;;;;;4.88;1.80;;;11.70;99.90;;;;;;5071399;28;20853;-53
2021/10/07 00:46:05;;;;;;;7.13;2.00;;;11.60;99.90;;;;;;5070469;28;20402;-53
2021/10/07 00:48:31;;;;;;;5.88;2.10;;;11.60;99.90;;;;;;5070197;28;20380;-53
2021/10/07 00:50:57;;;;;;;6.20;2.00;;;11.60;99.90;;;;;;5070711;28;20869;-53
2021/10/07 00:53:22;;;;;;;6.73;2.17;;;11.70;99.90;;;;;;5071187;28;20371;-53
2021/10/07 00:55:49;;;;;;;5.15;2.20;;;11.70;99.90;;;;;;5070877;28;20869;-53
2021/10/07 00:58:16;;;;;;;5.70;2.30;;;11.50;99.90;;;;;;5071402;28;20415;-53
2021/10/07 01:00:44;;;;;;;7.28;3.40;;;11.60;99.90;;;;;;5071123;28;20482;-54
2021/10/07 01:03:10;;;;;;;5.78;2.38;;;11.50;99.90;;;;;;5070077;28;20861;-53
2021/10/07 01:05:36;;;;;;;6.47;2.27;;;11.60;99.90;;;;;;5070948;28;20414;-53
2021/10/07 01:08:02;;;;;;;7.20;2.50;;;11.40;99.90;;;;;;5070078;28;20472;-53
2021/10/07 01:10:27;;;;;;;5.20;2.30;;;11.60;99.90;;;;;;5069342;28;20383;-53
2021/10/07 01:12:53;;;;;;;7.20;2.25;;;11.70;99.90;;;;;;5070381;28;20380;-54
2021/10/07 01:15:19;;;;;;;6.97;2.47;;;11.70;99.90;;;;;;5070807;28;20382;-53
2021/10/07 01:17:45;;;;;;;5.57;2.50;;;11.80;99.90;;;;;;5070108;28;20411;-54
2021/10/07 01:20:13;;;;;;;6.70;2.70;;;11.70;99.90;;;;;;5069471;28;20445;-53
2021/10/07 01:22:40;;;;;;;5.60;2.60;;;11.80;99.90;;;;;;5070498;28;20463;-53
2021/10/07 01:25:06;;;;;;;7.68;2.80;;;11.70;99.90;;;;;;5069682;28;20412;-54
2021/10/07 01:27:33;;;;;;;8.60;2.40;;;11.70;99.90;;;;;;5070815;28;20418;-53
2021/10/07 01:30:03;;;;;;;6.07;2.20;;;11.70;99.90;;;;;;5069801;28;20872;-53
2021/10/07 01:32:33;;;;;;;5.35;2.30;;;11.70;99.90;;;;;;5070290;28;20396;-53
2021/10/07 01:34:59;;;;;;;5.90;2.90;;;11.80;99.90;;;;;;5069926;28;20387;-53
2021/10/07 01:37:24;;;;;;;7.65;2.40;;;11.90;99.90;;;;;;5069012;28;20392;-53
2021/10/07 01:39:50;;;;;;;6.13;2.20;;;11.80;99.90;;;;;;5069999;28;20858;-53
2021/10/07 01:42:16;;;;;;;6.90;2.13;;;11.80;99.90;;;;;;5070106;28;20384;-53
2021/10/07 01:44:41;;;;;;;5.50;2.30;;;11.80;99.90;;;;;;5069634;28;20379;-54
2021/10/07 01:47:07;;;;;;;4.90;2.10;;;11.70;99.90;;;;;;5069743;28;20391;-53
2021/10/07 01:49:33;;;;;;;6.63;2.45;;;11.90;99.90;;;;;;5069988;28;20741;-53
2021/10/07 01:51:58;;;;;;;5.30;2.10;;;11.90;99.90;;;;;;5069241;28;20372;-53
2021/10/07 01:54:24;;;;;;;4.80;2.00;;;12.00;99.90;;;;;;5069835;28;20376;-53
2021/10/07 01:56:50;;;;;;;4.82;2.15;;;12.00;99.90;;;;;;5069003;28;20885;-53
2021/10/07 01:59:16;;;;;;;6.40;2.30;;;12.00;99.90;;;;;;5069586;28;20478;-53
2021/10/07 02:01:41;;;;;;;5.25;2.40;;;11.90;99.90;;;;;;5068287;28;20384;-54
2021/10/07 02:04:07;;;;;;;7.40;2.87;;;11.80;99.90;;;;;;5069353;28;20438;-53
2021/10/07 02:06:36;;;;;;;6.32;2.30;;;11.80;99.90;;;;;;5069778;28;20746;-53
2021/10/07 02:09:06;;;;;;;5.27;2.40;;;11.80;99.90;;;;;;5069160;28;20434;-53
2021/10/07 02:11:33;;;;;;;5.53;2.60;;;11.70;99.90;;;;;;5069728;28;20444;-53
2021/10/07 02:14:00;;;;;;;7.00;2.70;;;11.80;99.90;;;;;;5067646;28;20851;-53
2021/10/07 02:16:27;;;;;;;6.97;2.60;;;11.80;99.90;;;;;;5069792;28;20395;-53
2021/10/07 02:18:52;;;;;;;6.10;2.80;;;11.80;99.90;;;;;;5069141;28;20430;-53
2021/10/07 02:21:18;;;;;;;5.13;2.28;;;11.80;99.90;;;;;;5069391;28;20384;-53
2021/10/07 02:23:44;;;;;;;6.30;2.80;;;11.80;99.90;;;;;;5069459;28;20518;-54
2021/10/07 02:26:10;;;;;;;6.47;3.00;;;11.80;99.90;;;;;;5068808;28;20530;-53
2021/10/07 02:28:35;;;;;;;8.43;2.90;;;11.80;99.90;;;;;;5068179;28;20491;-53
2021/10/07 02:31:01;;;;;;;6.20;2.50;;;11.80;99.90;;;;;;5068749;28;20390;-53
2021/10/07 02:33:27;;;;;;;6.53;2.60;;;11.90;99.90;;;;;;5069428;28;20800;-53
2021/10/07 02:35:53;;;;;;;6.75;2.83;;;11.90;99.90;;;;;;5068557;28;20482;-54
2021/10/07 02:38:18;;;;;;;8.75;3.30;;;11.90;99.90;;;;;;5069490;28;20472;-53
2021/10/07 02:40:44;;;;;;;6.70;2.80;;;11.90;99.90;;;;;;5068817;28;20734;-54
2021/10/07 02:43:09;;;;;;;6.80;2.90;;;11.90;99.90;;;;;;5069214;28;20841;-53
2021/10/07 02:45:35;;;;;;;7.00;2.90;;;11.70;99.90;;;;;;5068172;28;20735;-54
2021/10/07 02:48:01;;;;;;;6.15;3.00;;;11.70;99.90;;;;;;5068926;28;20466;-54
2021/10/07 02:50:27;;;;;;;7.00;3.00;;;11.70;99.90;;;;;;5069357;28;20845;-53
2021/10/07 02:52:54;;;;;;;6.50;3.00;;;11.80;99.90;;;;;;5068561;28;20467;-53
2021/10/07 02:55:20;;;;;;;8.00;3.20;;;11.80;99.90;;;;;;5069598;28;20450;-53
2021/10/07 02:57:46;;;;;;;7.47;3.50;;;12.00;99.90;;;;;;5068164;28;20411;-54
2021/10/07 03:00:14;;;;;;;8.10;3.38;;;11.90;99.90;;;;;;5069265;28;20383;-54
2021/10/07 03:02:40;;;;;;;7.93;2.83;;;11.90;99.90;;;;;;5077359;28;20379;-53
2021/10/07 03:05:07;;;;;;;6.65;3.25;;;11.90;99.90;;;;;;5068470;28;21245;-53
2021/10/07 03:07:33;;;;;;;7.60;3.00;;;12.00;99.90;;;;;;5081187;28;20390;-54
2021/10/07 03:09:59;;;;;;;6.47;3.05;;;12.10;99.90;;;;;;5088394;28;20374;-53
2021/10/07 03:12:25;;;;;;;8.37;3.20;;;12.10;99.90;;;;;;5089925;28;20397;-53
2021/10/07 03:14:50;;;;;;;6.82;3.20;;;12.00;99.90;;;;;;5085716;28;20539;-53
2021/10/07 03:17:16;;;;;;;6.10;2.65;;;12.00;99.90;;;;;;5081484;28;20390;-53
2021/10/07 03:19:42;;;;;;;7.77;3.50;;;11.90;99.90;;;;;;5078726;28;20402;-53
2021/10/07 03:22:08;;;;;;;7.47;3.30;;;11.90;99.90;;;;;;5088760;28;20381;-53
2021/10/07 03:24:34;;;;;;;7.63;3.00;;;11.80;99.90;;;;;;5084842;28;20477;-53
2021/10/07 03:27:01;;;;;;;6.05;3.10;;;11.70;99.90;;;;;;5090163;28;20394;-53
2021/10/07 03:29:27;;;;;;;8.30;3.05;;;11.70;99.90;;;;;;5090240;28;20386;-53
2021/10/07 03:31:53;;;;;;;7.95;2.97;;;11.70;99.90;;;;;;5093556;28;20380;-54
2021/10/07 03:34:18;;;;;;;6.30;3.50;;;11.80;99.90;;;;;;5100612;28;20912;-53
2021/10/07 03:36:44;;;;;;;7.90;3.50;;;11.80;99.90;;;;;;5094194;28;20456;-53
2021/10/07 03:39:10;;;;;;;7.73;3.50;;;11.90;99.90;;;;;;5098080;28;20390;-53
2021/10/07 03:41:35;;;;;;;7.50;3.35;;;11.90;99.90;;;;;;5092476;28;20401;-53
2021/10/07 03:44:01;;;;;;;7.43;3.60;;;11.80;99.90;;;;;;5091823;28;20378;-53
2021/10/07 03:46:27;;;;;;;9.45;3.80;;;11.90;99.90;;;;;;5092178;28;20755;-53
2021/10/07 03:48:53;;;;;;;7.83;3.77;;;11.90;99.90;;;;;;5092028;28;20450;-53
2021/10/07 03:51:19;;;;;;;7.30;3.60;;;11.80;99.90;;;;;;5092357;28;20374;-53
2021/10/07 03:53:44;;;;;;;6.40;3.47;;;11.80;99.90;;;;;;5091834;28;20382;-54
2021/10/07 03:56:10;;;;;;;7.70;3.60;;;10.80;99.90;;;;;;5096817;28;20407;-53
2021/10/07 03:58:35;;;;;;;7.57;3.70;;;11.80;99.90;;;;;;5082134;28;20399;-53
2021/10/07 04:01:01;;;;;;;6.40;3.30;;;11.80;99.90;;;;;;5076890;28;20875;-54
2021/10/07 04:03:27;;;;;;;9.68;3.72;;;11.80;99.90;;;;;;5092191;28;20538;-53
2021/10/07 04:05:55;;;;;;;7.40;3.20;;;11.80;99.90;;;;;;5091382;28;20460;-53
2021/10/07 04:08:21;;;;;;;7.60;3.40;;;11.80;99.90;;;;;;5091649;28;20469;-53
2021/10/07 04:10:50;;;;;;;5.97;3.15;;;11.80;99.90;;;;;;5091082;28;20383;-54
2021/10/07 04:13:20;;;;;;;6.90;3.40;;;11.80;99.90;;;;;;5071644;28;20761;-53
2021/10/07 04:15:47;;;;;;;6.87;3.50;;;11.80;99.90;;;;;;5070919;28;20435;-54
2021/10/07 04:18:17;;;;;;;7.85;3.17;;;11.80;99.90;;;;;;5071627;28;20422;-53
2021/10/07 04:20:44;;;;;;;6.80;2.70;;;11.80;99.90;;;;;;5073577;28;20384;-54
2021/10/07 04:23:14;;;;;;;9.95;3.45;;;11.80;99.90;;;;;;5072418;28;20392;-53
2021/10/07 04:25:40;;;;;;;6.90;3.20;;;11.90;99.90;;;;;;5075895;28;20431;-53
2021/10/07 04:28:06;;;;;;;6.40;3.08;;;11.90;99.90;;;;;;5073655;28;20460;-53
2021/10/07 04:30:36;;;;;;;7.07;2.70;;;11.90;99.90;;;;;;5074581;28;20412;-53
2021/10/07 04:33:09;;;;;;;6.30;3.05;;;11.90;99.90;;;;;;5089516;28;20803;-53
2021/10/07 04:35:35;;;;;;;6.45;3.00;;;11.90;99.90;;;;;;5091301;28;20392;-53
2021/10/07 04:38:00;;;;;;;7.93;3.00;;;12.00;99.90;;;;;;5090547;28;20436;-53
2021/10/07 04:40:27;;;;;;;8.80;3.65;;;11.90;99.90;;;;;;5091537;28;20374;-53
2021/10/07 04:42:53;;;;;;;5.97;2.70;;;11.90;99.90;;;;;;5080859;28;20757;-53
2021/10/07 04:45:19;;;;;;;7.55;2.97;;;11.80;99.90;;;;;;5070564;28;20706;-53
2021/10/07 04:47:45;;;;;;;6.43;3.10;;;11.80;99.90;;;;;;5070518;28;20525;-53
2021/10/07 04:50:11;;;;;;;7.27;3.10;;;11.80;99.90;;;;;;5070644;28;20403;-53
2021/10/07 04:52:38;;;;;;;8.40;3.95;;;11.90;99.90;;;;;;5070910;28;20738;-53
2021/10/07 04:55:05;;;;;;;6.75;3.30;;;11.90;99.90;;;;;;5070044;28;20384;-53
2021/10/07 04:57:31;;;;;;;9.50;3.40;;;12.00;99.90;;;;;;5069910;28;20443;-53
2021/10/07 04:59:56;;;;;;;8.23;3.90;;;11.90;99.90;;;;;;5089847;28;20457;-53
2021/10/07 05:02:22;;;;;;;7.88;3.20;;;11.90;99.90;;;;;;5090607;28;20382;-53
2021/10/07 05:04:48;;;;;;;6.40;3.20;;;11.70;99.90;;;;;;5071002;28;21008;-53
2021/10/07 05:07:14;;;;;;;7.13;3.50;;;11.70;99.90;;;;;;5070251;28;20404;-53
2021/10/07 05:09:39;;;;;;;12.23;3.55;;;11.70;99.90;;;;;;5070357;28;20828;-53
2021/10/07 05:12:06;;;;;;;9.93;3.90;;;11.60;99.90;;;;;;5075240;28;20460;-53
2021/10/07 05:14:32;;;;;;;8.50;3.50;;;11.50;99.90;;;;;;5079392;28;20394;-53
2021/10/07 05:16:58;;;;;;;7.60;3.40;;;11.50;99.90;;;;;;5071796;28;20889;-53
2021/10/07 05:19:24;;;;;;;6.80;3.28;;;11.50;99.90;;;;;;5075563;28;20410;-52
2021/10/07 05:21:49;;;;;;;7.20;3.60;;;11.60;99.90;;;;;;5070510;28;20425;-54
2021/10/07 05:24:15;;;;;;;7.50;3.40;;;11.70;99.90;;;;;;5076448;28;20455;-52
2021/10/07 05:26:41;;;;;;;6.05;3.10;;;11.50;99.90;;;;;;5082083;28;20436;-53
2021/10/07 05:29:06;;;;;;;6.43;3.70;;;11.50;99.90;;;;;;5089656;28;20953;-53
2021/10/07 05:31:32;;;;;;;7.47;3.42;;;11.60;99.90;;;;;;5085047;28;20408;-52
2021/10/07 05:33:58;;;;;;;6.50;3.50;;;11.60;99.90;;;;;;5084226;28;20386;-53
2021/10/07 05:36:23;;;;;;;6.80;3.35;;;11.60;99.90;;;;;;5085437;28;20417;-52
2021/10/07 05:38:49;;;;;;;8.13;3.23;;;11.60;99.90;;;;;;5085707;28;20926;-54
2021/10/07 05:41:15;;;;;;;8.27;3.47;;;11.60;99.90;;;;;;5084548;28;20479;-53
2021/10/07 05:43:40;;;;;;;6.73;3.20;;;11.60;99.90;;;;;;5086156;28;20377;-53
2021/10/07 05:46:06;;;;;;;5.70;2.70;;;11.70;99.90;;;;;;5078344;28;20482;-53
2021/10/07 05:48:33;;;;;;;7.00;3.60;;;11.70;99.90;;;;;;5074318;28;20415;-53
2021/10/07 05:50:59;;;;;;;7.97;3.40;;;11.80;99.90;;;;;;5081736;28;20393;-53
2021/10/07 05:53:25;;;;;;;8.27;3.50;;;11.80;99.90;;;;;;5071517;28;20380;-53
2021/10/07 05:55:51;;;;;;;7.80;3.70;;;12.00;99.90;;;;;;5068822;28;20452;-54
2021/10/07 05:58:16;;;;;;;7.88;3.78;;;12.00;99.90;;;;;;5075600;28;20400;-53
2021/10/07 06:00:42;;;;;;;7.93;3.60;;;12.10;99.90;;;;;;5074582;28;20382;-53
2021/10/07 06:03:10;;;;;;;8.70;3.80;;;12.00;99.90;;;;;;5069650;28;20383;-53
2021/10/07 06:05:37;;;;;;;6.72;3.10;;;12.00;99.90;;;;;;5072867;28;20408;-53
2021/10/07 06:08:04;;;;;;;9.47;4.00;;;12.10;99.90;;;;;;5070416;28;20915;-53
2021/10/07 06:10:29;;;;;;;6.88;3.00;;;12.10;99.90;;;;;;5073096;28;20385;-53
2021/10/07 06:12:55;;;;;;;7.20;3.10;;;12.20;99.90;;;;;;5088728;28;20424;-53
2021/10/07 06:15:24;;;;;;;6.30;3.30;;;12.40;99.90;;;;;;5089251;28;20393;-53
2021/10/07 06:17:50;;;;;;;7.90;3.70;;;12.40;99.90;;;;;;5088081;28;20795;-54
2021/10/07 06:20:20;;;;;;;5.70;3.10;;;12.40;99.90;;;;;;5088739;28;20527;-52
2021/10/07 06:22:50;;;;;;;8.60;3.20;;;12.40;99.90;;;;;;5087315;28;20464;-53
2021/10/07 06:25:16;;;;;;;7.60;3.03;;;12.50;99.90;;;;;;5070484;28;20408;-52
2021/10/07 06:27:43;;;;;;;8.75;3.22;;;12.40;99.90;;;;;;5082545;28;20883;-53
2021/10/07 06:30:09;;;;;;;7.00;3.20;;;12.50;99.90;;;;;;5073963;28;20372;-53
2021/10/07 06:32:35;;;;;;;8.55;3.28;;;12.40;99.90;;;;;;5088887;28;20859;-53
2021/10/07 06:35:01;;;;;;;8.95;4.38;;;12.40;99.90;;;;;;5087859;28;20452;-53
2021/10/07 06:37:26;;;;;;;9.27;4.40;;;12.50;99.90;;;;;;5084254;28;20382;-53
2021/10/07 06:39:52;;;;;;;9.97;4.20;;;12.50;99.90;;;;;;5083493;28;20415;-54
2021/10/07 06:42:18;;;;;;;10.48;4.90;;;12.50;99.90;;;;;;5076882;28;20411;-52
2021/10/07 06:44:43;;;;;;;10.02;5.43;;;12.60;99.90;;;;;;5069322;28;20849;-53
2021/10/07 06:47:09;;;;;;;9.30;5.60;;;12.70;99.90;;;;;;5070119;28;21030;-53
2021/10/07 06:49:35;;;;;;;15.68;5.85;;;12.70;99.90;;;;;;5072171;28;20385;-53
2021/10/07 06:52:00;;;;;;;10.40;5.63;;;12.80;99.90;;;;;;5072741;28;20478;-53
2021/10/07 06:54:26;;;;;;;12.00;6.07;;;12.80;99.90;;;;;;5073245;28;20383;-53
2021/10/07 06:56:52;;;;;;;14.50;6.53;;;12.80;99.90;;;;;;5083347;28;20437;-54
2021/10/07 06:59:17;;;;;;;12.40;5.73;;;12.80;99.90;;;;;;5088713;28;20465;-53
2021/10/07 07:01:43;;;;;;;14.10;6.38;;;12.60;99.90;;;;;;5084058;28;20445;-53
2021/10/07 07:04:14;;;;;;;12.43;6.37;;;12.60;99.90;;;;;;5072597;28;20865;-53
2021/10/07 07:06:39;;;;;;;14.02;6.18;;;12.60;99.90;;;;;;5072955;28;20812;-53
2021/10/07 07:09:05;;;;;;;12.90;5.63;;;12.60;99.90;;;;;;5072477;28;20872;-53
2021/10/07 07:11:31;;;;;;;11.98;6.20;;;12.60;99.90;;;;;;5071613;28;20449;-53
2021/10/07 07:13:57;;;;;;;10.35;5.38;;;12.60;99.90;;;;;;5071967;28;20410;-53
2021/10/07 07:16:23;;;;;;;11.83;5.90;;;12.70;99.90;;;;;;5072753;28;20892;-53
2021/10/07 07:18:49;;;;;;;18.23;8.60;;;12.80;99.90;;;;;;5084883;28;20374;-55
2021/10/07 07:21:15;;;;;;;12.20;5.80;;;13.00;99.90;;;;;;5072701;28;20452;-54
2021/10/07 07:23:41;;;;;;;9.75;5.32;;;13.10;99.90;;;;;;5072405;28;20392;-53
2021/10/07 07:26:07;;;;;;;9.70;5.80;;;13.10;99.90;;;;;;5075304;28;20491;-53
2021/10/07 07:28:32;;;;;;;10.73;5.60;;;13.10;99.90;;;;;;5078301;28;20740;-53
2021/10/07 07:30:58;;;;;;;12.10;5.50;;;13.90;99.90;;;;;;5087421;28;20524;-53
2021/10/07 07:33:27;;;;;;;14.00;5.77;;;13.00;99.90;;;;;;5084328;28;20385;-53
2021/10/07 07:35:52;;;;;;;11.67;6.70;;;13.10;99.90;;;;;;5090380;28;20382;-54
2021/10/07 07:38:18;;;;;;;9.98;6.40;;;13.10;99.90;;;;;;5089207;28;20394;-54
2021/10/07 07:40:44;;;;;;;10.30;6.63;;;13.00;99.90;;;;;;5086156;28;20380;-53
2021/10/07 07:43:09;;;;;;;11.20;6.82;;;13.00;99.90;;;;;;5073565;28;20380;-53
2021/10/07 07:45:35;;;;;;;14.40;7.00;;;13.20;99.90;;;;;;5071998;28;20402;-53
2021/10/07 07:48:01;;;;;;;10.55;6.13;;;13.40;99.90;;;;;;5071905;28;21050;-53
2021/10/07 07:50:29;;;;;;;14.10;6.40;;;13.50;99.90;;;;;;5072197;28;20461;-54
2021/10/07 07:52:55;;;;;;;13.90;7.88;;;13.70;99.90;;;;;;5071969;28;20387;-53
2021/10/07 07:55:21;;;;;;;14.10;7.43;;;13.70;99.90;;;;;;5071939;28;20868;-53
2021/10/07 07:57:47;;;;;;;15.02;8.00;;;13.70;99.90;;;;;;5073008;28;20870;-53
2021/10/07 08:00:13;;;;;;;13.00;7.00;;;13.60;99.90;;;;;;5076727;28;20555;-53
2021/10/07 08:02:39;;;;;;;15.10;8.20;;;13.60;99.90;;;;;;5079370;28;20400;-53
2021/10/07 08:05:05;;;;;;;14.23;8.70;;;13.70;99.90;;;;;;5069309;28;20440;-53
2021/10/07 08:07:31;;;;;;;13.60;7.97;;;13.70;99.90;;;;;;5072334;28;20450;-53
2021/10/07 08:09:56;;;;;;;14.75;8.85;;;13.90;99.90;;;;;;5070965;28;20379;-54
2021/10/07 08:12:23;;;;;;;13.05;8.05;;;13.90;99.90;;;;;;5073480;28;20444;-53
2021/10/07 08:14:49;;;;;;;14.48;9.23;;;13.90;99.90;;;;;;5072082;28;20372;-53
2021/10/07 08:17:15;;;;;;;14.48;8.90;;;13.90;99.90;;;;;;5071340;28;20813;-53
2021/10/07 08:19:42;;;;;;;12.05;8.10;;;14.00;99.90;;;;;;5071752;28;20408;-53
2021/10/07 08:22:09;;;;;;;13.45;8.00;;;14.10;99.90;;;;;;5081145;28;20386;-53
2021/10/07 08:24:35;;;;;;;14.43;8.20;;;14.40;99.90;;;;;;5081856;28;20404;-53
2021/10/07 08:27:03;;;;;;;14.15;8.23;;;14.80;99.90;;;;;;5081147;28;20425;-55
2021/10/07 08:29:29;;;;;;;13.77;8.50;;;14.90;99.90;;;;;;5084868;28;20440;-55
2021/10/07 08:31:55;;;;;;;13.98;7.90;;;15.00;99.90;;;;;;5075579;28;20386;-56
2021/10/07 08:34:21;;;;;;;14.00;8.50;;;15.40;99.90;;;;;;5082692;28;20471;-55
2021/10/07 08:36:46;;;;;;;14.73;8.50;;;15.70;99.90;;;;;;5071697;28;20863;-55
2021/10/07 08:39:14;;;;;;;14.00;9.40;;;15.60;99.90;;;;;;5069645;28;20513;-55
2021/10/07 08:41:42;;;;;;;14.05;8.50;;;15.70;99.90;;;;;;5078123;28;20475;-55
2021/10/07 08:44:08;;;;;;;11.53;7.70;;;16.10;99.90;;;;;;5083765;28;20367;-55
2021/10/07 08:46:33;;;;;;;15.65;8.32;;;16.20;99.90;;;;;;5090580;28;20410;-55
2021/10/07 08:49:00;;;;;;;13.57;8.30;;;16.60;99.90;;;;;;5089896;28;20382;-55
2021/10/07 08:51:27;;;;;;;15.70;8.80;;;16.80;99.90;;;;;;5090747;28;20911;-53
2021/10/07 08:53:53;;;;;;;13.20;8.97;;;17.20;99.90;;;;;;5088600;28;20451;-56
2021/10/07 08:56:20;;;;;;;14.23;7.97;;;16.90;99.90;;;;;;5083048;28;20390;-55
2021/10/07 08:58:46;;;;;;;13.00;8.50;;;16.50;99.90;;;;;;5087270;28;20386;-55
2021/10/07 09:01:35;;;;;;;14.90;9.05;;;16.30;99.90;;;;;;5086635;28;20374;-55
2021/10/07 09:04:01;;;;;;;14.50;8.30;;;16.20;99.90;;;;;;5085106;28;20411;-55
2021/10/07 09:06:27;;;;;;;13.07;7.32;;;16.20;99.90;;;;;;5083687;28;20760;-54
2021/10/07 09:08:53;;;;;;;14.40;8.20;;;18.00;99.90;;;;;;5085027;28;20390;-54
2021/10/07 09:11:27;;;;;;;12.93;7.65;;;19.60;99.90;;;;;;5085410;28;21052;-53
2021/10/07 09:14:04;;;;;;;12.50;7.78;;;19.60;99.90;;;;;;5079660;28;20377;-54
2021/10/07 09:16:51;;;;;;;11.47;7.20;;;18.70;99.90;;;;;;5070806;28;20391;-53
2021/10/07 09:19:28;;;;;;;12.38;7.10;;;17.70;99.90;;;;;;5075278;28;20386;-55
2021/10/07 09:21:56;;;;;;;12.15;7.53;;;17.10;99.90;;;;;;5069570;28;20463;-56
2021/10/07 09:24:40;;;;;;;13.82;8.40;;;16.40;99.90;;;;;;5072484;28;20463;-55
2021/10/07 09:27:10;;;;;;;14.55;9.75;;;16.20;99.90;;;;;;5073562;28;20437;-55
2021/10/07 09:29:40;;;;;;;13.60;8.87;;;16.00;99.90;;;;;;5070420;28;20738;-55
2021/10/07 09:32:08;;;;;;;12.63;7.35;;;16.10;99.90;;;;;;5082316;28;20866;-55
2021/10/07 09:34:46;;;;;;;12.73;7.95;;;16.50;99.90;;;;;;5077496;28;20384;-55
2021/10/07 09:37:29;;;;;;;11.90;7.72;;;16.50;99.90;;;;;;5069909;28;20384;-55
2021/10/07 09:40:03;;;;;;;15.52;7.63;;;16.60;99.90;;;;;;5089145;28;20477;-56
2021/10/07 09:42:32;;;;;;;10.25;6.50;;;16.30;99.90;;;;;;5088017;28;20386;-55
2021/10/07 09:45:00;;;;;;;10.88;6.05;;;16.30;99.90;;;;;;5074708;28;20386;-56
2021/10/07 09:47:34;;;;;;;9.40;5.90;;;16.50;99.90;;;;;;5078253;28;20407;-55
2021/10/07 09:50:10;;;;;;;9.02;4.85;;;16.60;99.90;;;;;;5080104;28;20390;-55
2021/10/07 09:52:40;;;;;;;11.70;5.75;;;16.70;99.90;;;;;;5083553;28;20398;-56
2021/10/07 09:55:14;;;;;;;10.68;6.10;;;16.70;99.90;;;;;;5077407;28;20393;-55
2021/10/07 09:58:01;;;;;;;8.35;5.45;;;16.80;99.90;;;;;;5080245;28;20504;-55
2021/10/07 10:00:36;;;;;;;10.63;5.82;;;16.30;99.90;;;;;;5084840;28;20439;-55
2021/10/07 10:03:05;;;;;;;10.65;5.50;;;16.30;99.90;;;;;;5079246;28;20384;-56
2021/10/07 10:05:32;;;;;;;11.05;6.00;;;16.30;99.90;;;;;;5083169;28;20458;-55
2021/10/07 10:07:58;;;;;;;10.88;6.60;;;16.20;99.90;;;;;;5086966;28;20493;-55
2021/10/07 10:10:25;;;;;;;11.35;6.30;;;16.50;99.90;;;;;;5080269;28;20394;-55
2021/10/07 10:12:51;;;;;;;10.80;6.30;;;16.40;99.90;;;;;;5089607;28;20417;-55
2021/10/07 10:15:17;;;;;;;14.95;7.20;;;16.30;99.90;;;;;;5088987;28;20588;-55
2021/10/07 10:17:44;;;;;;;10.20;6.40;;;16.40;99.90;;;;;;5089163;28;20417;-55
2021/10/07 10:20:25;;;;;;;9.52;5.97;;;16.30;99.90;;;;;;5087058;28;20379;-55
2021/10/07 10:22:58;;;;;;;9.95;6.20;;;16.00;99.90;;;;;;5089218;28;20397;-54
2021/10/07 10:25:26;;;;;;;11.05;6.10;;;15.90;99.90;;;;;;5089433;28;20905;-54
2021/10/07 10:27:55;;;;;;;9.80;6.30;;;15.90;99.90;;;;;;5089207;28;20386;-54
2021/10/07 10:30:25;;;;;;;10.40;5.90;;;16.00;99.90;;;;;;5089082;28;20370;-54
2021/10/07 10:32:56;;;;;;;9.05;5.80;;;16.20;99.90;;;;;;5087017;28;20389;-55
2021/10/07 10:35:39;;;;;;;14.48;6.75;;;16.30;99.90;;;;;;5089299;28;20466;-55
2021/10/07 10:38:10;;;;;;;12.00;8.82;;;16.30;99.90;;;;;;5088725;28;20389;-54
2021/10/07 10:40:38;;;;;;;11.02;6.70;;;16.60;99.90;;;;;;5085296;28;20382;-55
2021/10/07 10:43:18;;;;;;;10.57;5.90;;;16.80;99.90;;;;;;5081148;28;20376;-54
2021/10/07 10:46:07;;;;;;;11.35;6.57;;;17.00;99.90;;;;;;5084044;28;20434;-54
2021/10/07 10:48:42;;;;;;;13.80;7.43;;;16.90;99.90;;;;;;5079527;28;20389;-55
2021/10/07 10:51:12;;;;;;;10.93;6.80;;;16.90;99.90;;;;;;5088445;28;20389;-54
2021/10/07 10:53:59;;;;;;;10.57;6.97;;;16.90;99.90;;;;;;5089288;28;20867;-55
2021/10/07 10:56:34;;;;;;;10.65;6.10;;;16.60;99.90;;;;;;5089006;28;20463;-55
2021/10/07 10:59:16;;;;;;;10.52;6.45;;;16.40;99.90;;;;;;5088408;28;20374;-55
2021/10/07 11:01:42;;;;;;;11.05;6.72;;;16.20;99.90;;;;;;5088737;28;20473;-54
2021/10/07 11:04:08;;;;;;;11.70;6.80;;;16.00;99.90;;;;;;5085355;28;20466;-54
2021/10/07 11:07:12;;;;;;;11.13;6.90;;;15.90;99.90;;;;;;5088604;28;20508;-55
2021/10/07 11:09:58;;;;;;;10.85;6.50;;;16.20;99.90;;;;;;5068806;28;20473;-54
2021/10/07 11:12:25;;;;;;;11.80;6.10;;;16.90;99.90;;;;;;5087840;28;20872;-54
2021/10/07 11:14:51;;;;;;;10.57;6.60;;;17.10;99.90;;;;;;5089049;28;20396;-55
2021/10/07 11:17:18;;;;;;;11.98;6.75;;;17.00;99.90;;;;;;5086822;28;20879;-55
2021/10/07 11:19:47;;;;;;;10.25;6.32;;;17.10;99.90;;;;;;5085854;28;20390;-55
2021/10/07 11:22:13;;;;;;;10.63;5.70;;;17.20;99.90;;;;;;5072283;28;20477;-55
2021/10/07 11:24:55;;;;;;;11.50;6.30;;;17.20;99.90;;;;;;5087969;28;20461;-54
2021/10/07 11:27:32;;;;;;;10.80;5.45;;;17.00;99.90;;;;;;5079251;28;20551;-55
2021/10/07 11:29:58;;;;;;;11.40;6.50;;;17.10;99.90;;;;;;5083556;28;20406;-56
2021/10/07 11:32:24;;;;;;;11.70;6.30;;;17.10;99.90;;;;;;5072405;28;20908;-55
2021/10/07 11:35:08;;;;;;;10.85;5.97;;;17.40;99.90;;;;;;5086779;28;20445;-54
2021/10/07 11:37:56;;;;;;;10.40;5.77;;;17.40;99.90;;;;;;5086918;28;20406;-55
2021/10/07 11:40:31;;;;;;;9.20;5.28;;;17.40;99.90;;;;;;5087112;28;20394;-54
2021/10/07 11:43:06;;;;;;;8.45;5.00;;;17.10;99.90;;;;;;5091428;28;20477;-56
2021/10/07 11:45:37;;;;;;;10.23;5.40;;;17.00;99.90;;;;;;5091555;28;20480;-54
2021/10/07 11:48:07;;;;;;;9.23;5.15;;;17.00;99.90;;;;;;5090935;28;20442;-55
2021/10/07 11:50:36;;;;;;;9.50;5.13;;;17.00;99.90;;;;;;5092243;28;20382;-54
2021/10/07 11:53:01;;;;;;;10.15;5.10;;;17.00;99.90;;;;;;5090874;28;20476;-54
2021/10/07 11:55:27;;;;;;;9.02;5.20;;;17.00;99.90;;;;;;5091737;28;20748;-54
2021/10/07 11:57:59;;;;;;;8.88;5.03;;;17.20;99.90;;;;;;5091169;28;20493;-54
2021/10/07 12:00:47;;;;;;;9.47;4.80;;;16.90;99.90;;;;;;5092378;28;20377;-53
2021/10/07 12:03:17;;;;;;;7.25;4.30;;;17.00;99.90;;;;;;5091370;28;20747;-54
2021/10/07 12:05:46;;;;;;;8.50;5.30;;;17.10;99.90;;;;;;5091851;28;20433;-54
2021/10/07 12:08:17;;;;;;;10.20;5.87;;;17.00;99.90;;;;;;5089748;28;20397;-54
2021/10/07 12:10:48;;;;;;;9.50;5.65;;;17.00;99.90;;;;;;5098766;28;20386;-54
2021/10/07 12:13:28;;;;;;;9.90;5.20;;;16.70;99.90;;;;;;5080057;28;21008;-55
2021/10/07 12:16:17;;;;;;;12.68;6.80;;;16.80;99.90;;;;;;5085200;28;20386;-55
2021/10/07 12:18:45;;;;;;;10.18;6.10;;;16.80;99.90;;;;;;5085276;28;20386;-55
2021/10/07 12:21:14;;;;;;;10.52;5.88;;;16.90;99.90;;;;;;5070121;28;20376;-55
2021/10/07 12:24:00;;;;;;;10.48;5.60;;;16.90;99.90;;;;;;5069715;28;20391;-55
2021/10/07 12:26:47;;;;;;;8.32;4.80;;;16.90;99.90;;;;;;5090222;28;20817;-55
2021/10/07 12:29:14;;;;;;;9.88;5.45;;;16.70;99.90;;;;;;5094504;28;20477;-55
2021/10/07 12:32:12;;;;;;;9.63;5.30;;;16.80;99.90;;;;;;5098341;28;20393;-56
2021/10/07 12:34:40;;;;;;;10.15;5.60;;;16.80;99.90;;;;;;5092081;28;20405;-56
2021/10/07 12:37:08;;;;;;;10.00;5.50;;;16.80;99.90;;;;;;5085610;28;20902;-56
2021/10/07 12:39:42;;;;;;;11.10;5.60;;;16.50;99.90;;;;;;5087677;28;20850;-56
2021/10/07 12:42:22;;;;;;;8.80;5.15;;;16.50;99.90;;;;;;5101636;28;20421;-56
2021/10/07 12:44:57;;;;;;;10.43;5.80;;;16.60;99.90;;;;;;5103402;28;20393;-56
2021/10/07 12:47:28;;;;;;;11.55;5.78;;;16.80;99.90;;;;;;5098456;28;20404;-56
2021/10/07 12:49:56;;;;;;;10.77;6.28;;;16.80;99.90;;;;;;5088631;28;20483;-58
2021/10/07 12:52:26;;;;;;;9.50;5.72;;;16.50;99.90;;;;;;5092856;28;20378;-56
2021/10/07 12:55:03;;;;;;;11.15;5.60;;;16.50;99.90;;;;;;5090112;28;20886;-57